createdAt,value
2023-01-06T00:01:13.673Z,1.83
2023-01-06T00:03:40.498Z,1.65
2023-01-06T00:06:09.857Z,2.38
2023-01-06T00:08:37.307Z,1.95
2023-01-06T00:11:12.885Z,1.92
2023-01-06T00:13:40.267Z,2.00
2023-01-06T00:16:09.096Z,1.75
2023-01-06T00:18:36.261Z,1.67
2023-01-06T00:21:03.571Z,1.60
2023-01-06T00:23:30.817Z,1.92
2023-01-06T00:25:57.573Z,1.58
2023-01-06T00:28:24.395Z,2.15
2023-01-06T00:30:51.517Z,2.00
2023-01-06T00:33:18.462Z,1.58
2023-01-06T00:35:45.256Z,1.85
2023-01-06T00:38:12.222Z,1.80
2023-01-06T00:40:39.086Z,1.80
2023-01-06T00:43:05.917Z,1.63
2023-01-06T00:45:32.720Z,1.67
2023-01-06T00:47:59.451Z,1.92
2023-01-06T00:50:26.288Z,1.75
2023-01-06T00:52:53.942Z,2.53
2023-01-06T00:55:20.795Z,2.13
2023-01-06T00:57:49.920Z,1.88
2023-01-06T01:00:16.702Z,1.77
2023-01-06T01:02:43.552Z,1.88
2023-01-06T01:05:10.643Z,1.70
2023-01-06T01:07:37.656Z,2.10
2023-01-06T01:10:04.752Z,2.28
2023-01-06T01:12:32.141Z,2.03
2023-01-06T01:14:59.031Z,2.03
2023-01-06T01:17:31.184Z,1.92
2023-01-06T01:19:59.934Z,1.70
2023-01-06T01:22:29.012Z,1.70
2023-01-06T01:24:55.903Z,2.10
2023-01-06T01:27:22.653Z,2.00
2023-01-06T01:29:49.488Z,2.20
2023-01-06T01:32:16.240Z,1.80
2023-01-06T01:34:43.009Z,2.00
2023-01-06T01:37:09.842Z,1.80
2023-01-06T01:39:36.584Z,1.67
2023-01-06T01:42:03.583Z,2.10
2023-01-06T01:44:52.080Z,2.13
2023-01-06T01:47:47.780Z,2.08
2023-01-06T01:50:21.479Z,2.13
2023-01-06T01:52:51.933Z,2.25
2023-01-06T01:55:19.678Z,2.28
2023-01-06T01:58:01.912Z,2.05
2023-01-06T02:00:29.194Z,1.80
2023-01-06T02:02:56.895Z,2.30
2023-01-06T02:05:26.193Z,2.10
2023-01-06T02:07:54.572Z,1.65
2023-01-06T02:10:23.025Z,2.05
2023-01-06T02:12:53.917Z,2.13
2023-01-06T02:15:25.075Z,1.70
2023-01-06T02:18:21.214Z,2.08
2023-01-06T02:21:01.845Z,1.88
2023-01-06T02:23:58.270Z,1.50
2023-01-06T02:26:56.814Z,2.05
2023-01-06T02:30:08.078Z,2.00
2023-01-06T02:32:54.921Z,2.25
2023-01-06T02:35:44.190Z,1.90
2023-01-06T02:38:19.929Z,2.08
2023-01-06T02:41:02.111Z,1.80
2023-01-06T02:43:33.872Z,1.80
2023-01-06T02:46:16.037Z,1.63
2023-01-06T02:48:59.385Z,1.70
2023-01-06T02:51:45.190Z,1.58
2023-01-06T02:54:39.821Z,1.73
2023-01-06T02:57:12.338Z,2.03
2023-01-06T03:00:11.392Z,2.03
2023-01-06T03:02:41.421Z,2.10
2023-01-06T03:05:12.695Z,1.90
2023-01-06T03:07:40.425Z,1.75
2023-01-06T03:10:08.472Z,2.35
2023-01-06T03:12:50.471Z,1.80
2023-01-06T03:15:17.498Z,2.10
2023-01-06T03:17:44.825Z,1.50
2023-01-06T03:20:13.542Z,1.65
2023-01-06T03:22:41.206Z,1.73
2023-01-06T03:25:09.234Z,1.48
2023-01-06T03:27:36.144Z,2.20
2023-01-06T03:30:09.769Z,1.85
2023-01-06T03:32:51.441Z,2.22
2023-01-06T03:35:28.150Z,1.58
2023-01-06T03:38:26.832Z,1.85
2023-01-06T03:41:00.334Z,1.90
2023-01-06T03:43:59.594Z,2.10
2023-01-06T03:46:52.857Z,1.58
2023-01-06T03:49:28.598Z,1.58
2023-01-06T03:51:58.269Z,1.80
2023-01-06T03:54:47.949Z,1.75
2023-01-06T03:57:44.189Z,1.40
2023-01-06T04:00:24.386Z,1.65
2023-01-06T04:02:51.855Z,1.65
2023-01-06T04:05:27.099Z,1.65
2023-01-06T04:07:54.678Z,1.47
2023-01-06T04:10:23.154Z,1.50
2023-01-06T04:12:50.781Z,1.70
2023-01-06T04:15:21.491Z,1.75
2023-01-06T04:17:48.938Z,2.00
2023-01-06T04:20:25.300Z,2.22
2023-01-06T04:22:54.385Z,1.60
2023-01-06T04:25:21.951Z,1.60
2023-01-06T04:27:48.820Z,1.77
2023-01-06T04:30:15.800Z,1.77
2023-01-06T04:32:42.966Z,1.95
2023-01-06T04:35:10.182Z,1.98
2023-01-06T04:37:37.268Z,1.70
2023-01-06T04:40:04.482Z,1.60
2023-01-06T04:42:51.386Z,1.67
2023-01-06T04:45:18.214Z,1.58
2023-01-06T04:47:45.403Z,1.63
2023-01-06T04:50:12.416Z,2.17
2023-01-06T04:52:39.266Z,1.77
2023-01-06T04:55:06.188Z,1.60
2023-01-06T04:57:32.980Z,1.70
2023-01-06T04:59:59.714Z,1.73
2023-01-06T05:02:26.476Z,1.50
2023-01-06T05:04:53.224Z,1.85
2023-01-06T05:07:20.052Z,1.48
2023-01-06T05:09:46.811Z,1.65
2023-01-06T05:12:13.632Z,1.70
2023-01-06T05:14:40.364Z,1.73
2023-01-06T05:17:07.194Z,1.70
2023-01-06T05:19:33.961Z,1.30
2023-01-06T05:22:00.930Z,1.70
2023-01-06T05:24:27.668Z,1.80
2023-01-06T05:26:55.015Z,1.50
2023-01-06T05:29:21.767Z,1.52
2023-01-06T05:31:48.597Z,1.40
2023-01-06T05:34:15.464Z,1.35
2023-01-06T05:36:42.577Z,1.58
2023-01-06T05:39:09.359Z,1.50
2023-01-06T05:41:36.406Z,1.48
2023-01-06T05:44:03.237Z,1.48
2023-01-06T05:46:30.011Z,1.70
2023-01-06T05:48:57.249Z,1.20
2023-01-06T05:51:23.968Z,1.60
2023-01-06T05:53:50.733Z,1.70
2023-01-06T05:56:19.887Z,1.60
2023-01-06T05:58:49.538Z,1.88
2023-01-06T06:01:24.472Z,1.65
2023-01-06T06:03:52.544Z,1.77
2023-01-06T06:06:21.857Z,1.77
2023-01-06T06:08:48.676Z,2.10
2023-01-06T06:11:17.336Z,1.90
2023-01-06T06:13:52.611Z,1.73
2023-01-06T06:16:23.040Z,1.60
2023-01-06T06:18:52.384Z,1.73
2023-01-06T06:21:27.181Z,1.52
2023-01-06T06:23:54.970Z,1.80
2023-01-06T06:26:22.324Z,1.33
2023-01-06T06:28:49.181Z,1.50
2023-01-06T06:31:22.906Z,1.60
2023-01-06T06:33:55.161Z,1.40
2023-01-06T06:36:22.305Z,1.70
2023-01-06T06:38:51.398Z,1.30
2023-01-06T06:41:19.782Z,1.70
2023-01-06T06:43:47.959Z,1.52
2023-01-06T06:46:14.719Z,1.98
2023-01-06T06:48:41.691Z,2.00
2023-01-06T06:51:11.001Z,1.50
2023-01-06T06:53:39.236Z,1.83
2023-01-06T06:56:07.392Z,1.88
2023-01-06T06:58:35.229Z,2.08
2023-01-06T07:01:10.865Z,1.70
2023-01-06T07:03:38.413Z,2.10
2023-01-06T07:06:08.361Z,2.10
2023-01-06T07:08:35.225Z,2.20
2023-01-06T07:11:02.452Z,1.95
2023-01-06T07:13:29.410Z,2.25
2023-01-06T07:15:56.296Z,2.05
2023-01-06T07:18:23.102Z,2.20
2023-01-06T07:20:53.473Z,2.15
2023-01-06T07:23:21.431Z,2.00
2023-01-06T07:25:56.906Z,2.10
2023-01-06T07:28:24.692Z,2.05
2023-01-06T07:30:52.294Z,2.20
2023-01-06T07:33:20.220Z,2.08
2023-01-06T07:35:47.918Z,1.95
2023-01-06T07:38:14.718Z,2.20
2023-01-06T07:40:41.465Z,2.53
2023-01-06T07:43:10.566Z,2.40
2023-01-06T07:45:38.084Z,2.15
2023-01-06T07:48:05.424Z,2.40
2023-01-06T07:50:32.265Z,2.30
2023-01-06T07:53:01.343Z,2.10
2023-01-06T07:55:29.932Z,2.08
2023-01-06T07:57:58.465Z,2.00
2023-01-06T08:00:25.737Z,1.80
2023-01-06T08:02:53.062Z,1.73
2023-01-06T08:05:20.372Z,1.98
2023-01-06T08:07:47.179Z,2.05
2023-01-06T08:10:15.489Z,2.05
2023-01-06T08:12:42.258Z,1.90
2023-01-06T08:15:09.519Z,1.83
2023-01-06T08:17:36.461Z,2.30
2023-01-06T08:20:03.611Z,1.98
2023-01-06T08:22:30.685Z,2.17
2023-01-06T08:24:57.467Z,2.08
2023-01-06T08:27:24.335Z,2.10
2023-01-06T08:29:54.695Z,2.58
2023-01-06T08:32:21.946Z,2.10
2023-01-06T08:34:48.913Z,2.15
2023-01-06T08:37:15.765Z,2.17
2023-01-06T08:39:42.603Z,2.47
2023-01-06T08:42:09.397Z,2.20
2023-01-06T08:44:36.472Z,1.98
2023-01-06T08:47:03.409Z,2.25
2023-01-06T08:49:30.172Z,2.53
2023-01-06T08:51:57.141Z,2.13
2023-01-06T08:54:24.171Z,2.33
2023-01-06T08:56:51.040Z,2.30
2023-01-06T08:59:17.879Z,2.13
2023-01-06T09:01:45.270Z,2.35
2023-01-06T09:04:13.449Z,2.40
2023-01-06T09:06:43.273Z,2.53
2023-01-06T09:09:11.945Z,2.15
2023-01-06T09:11:44.338Z,2.40
2023-01-06T09:14:14.044Z,2.42
2023-01-06T09:16:42.052Z,2.30
2023-01-06T09:19:10.435Z,1.90
2023-01-06T09:21:37.674Z,2.10
2023-01-06T09:24:04.549Z,2.00
2023-01-06T09:26:31.407Z,2.10
2023-01-06T09:28:58.215Z,2.05
2023-01-06T09:31:25.285Z,1.88
2023-01-06T09:33:52.089Z,2.10
2023-01-06T09:36:18.826Z,2.28
2023-01-06T09:38:45.594Z,1.90
2023-01-06T09:41:51.716Z,1.92
2023-01-06T09:44:30.391Z,2.00
2023-01-06T09:46:59.408Z,2.03
2023-01-06T09:49:52.021Z,1.90
2023-01-06T09:52:43.274Z,2.20
2023-01-06T09:55:30.529Z,2.10
2023-01-06T09:58:03.584Z,1.80
2023-01-06T10:00:52.642Z,2.05
2023-01-06T10:03:22.460Z,1.90
2023-01-06T10:06:25.130Z,2.40
2023-01-06T10:09:04.037Z,2.35
2023-01-06T10:11:39.757Z,2.10
2023-01-06T10:14:22.229Z,2.53
2023-01-06T10:17:18.141Z,2.65
2023-01-06T10:20:02.024Z,2.20
2023-01-06T10:22:55.640Z,2.63
2023-01-06T10:25:32.934Z,2.38
2023-01-06T10:28:19.771Z,2.10
2023-01-06T10:30:50.466Z,2.38
2023-01-06T10:35:55.887Z,1.92
2023-01-06T10:38:28.592Z,2.00
2023-01-06T10:41:02.284Z,2.00
2023-01-06T10:43:29.414Z,2.08
2023-01-06T10:45:56.378Z,2.55
2023-01-06T10:48:30.479Z,2.08
2023-01-06T10:50:58.055Z,2.10
2023-01-06T10:53:25.042Z,2.08
2023-01-06T10:56:00.259Z,2.03
2023-01-06T10:58:52.747Z,2.50
2023-01-06T11:01:27.729Z,1.88
2023-01-06T11:04:12.047Z,1.98
2023-01-06T11:07:01.104Z,1.77
2023-01-06T11:09:36.860Z,1.80
2023-01-06T11:12:12.988Z,1.63
2023-01-06T11:17:15.940Z,1.80
2023-01-06T11:19:44.736Z,1.52
2023-01-06T11:22:35.723Z,1.83
2023-01-06T11:25:04.652Z,1.98
2023-01-06T11:27:31.408Z,1.55
2023-01-06T11:29:58.241Z,1.80
2023-01-06T11:32:28.545Z,1.73
2023-01-06T11:35:01.241Z,1.60
2023-01-06T11:37:35.153Z,1.50
2023-01-06T11:40:19.107Z,1.30
2023-01-06T11:42:53.249Z,1.55
2023-01-06T11:45:46.768Z,1.38
2023-01-06T11:48:20.683Z,1.30
2023-01-06T11:50:59.170Z,1.67
2023-01-06T11:53:26.998Z,1.60
2023-01-06T11:56:16.777Z,1.67
2023-01-06T11:58:56.060Z,1.30
2023-01-06T12:01:43.242Z,1.63
2023-01-06T12:04:12.856Z,1.70
2023-01-06T12:06:45.058Z,1.33
2023-01-06T12:09:28.067Z,1.25
2023-01-06T12:11:56.916Z,1.30
2023-01-06T12:14:29.425Z,1.17
2023-01-06T12:17:08.787Z,1.33
2023-01-06T12:20:08.208Z,1.48
2023-01-06T12:22:51.466Z,1.30
2023-01-06T12:25:33.129Z,1.50
2023-01-06T12:28:04.503Z,1.23
2023-01-06T12:31:05.649Z,1.17
2023-01-06T12:33:49.376Z,1.48
2023-01-06T12:36:21.985Z,1.30
2023-01-06T12:38:55.798Z,1.10
2023-01-06T12:41:49.845Z,1.40
2023-01-06T12:44:25.427Z,1.27
2023-01-06T12:47:05.289Z,1.30
2023-01-06T12:49:40.500Z,1.33
2023-01-06T12:52:24.955Z,0.90
2023-01-06T12:54:57.061Z,1.30
2023-01-06T12:57:31.575Z,1.20
2023-01-06T13:00:04.015Z,1.30
2023-01-06T13:03:01.731Z,1.10
2023-01-06T13:05:44.307Z,1.15
2023-01-06T13:08:35.526Z,0.98
2023-01-06T13:11:26.971Z,1.13
2023-01-06T13:14:18.109Z,1.05
2023-01-06T13:17:06.227Z,1.02
2023-01-06T13:19:53.788Z,0.70
2023-01-06T13:23:03.148Z,0.80
2023-01-06T13:25:57.570Z,0.63
2023-01-06T13:28:39.368Z,0.80
2023-01-06T13:31:29.767Z,0.70
2023-01-06T13:34:27.700Z,0.73
2023-01-06T13:37:32.195Z,0.82
2023-01-06T13:40:10.371Z,0.70
2023-01-06T13:42:45.638Z,0.93
2023-01-06T13:45:28.239Z,0.80
2023-01-06T13:47:57.589Z,0.70
2023-01-06T13:50:25.899Z,0.60
2023-01-06T13:52:54.510Z,0.60
2023-01-06T13:55:33.840Z,0.50
2023-01-06T13:58:23.497Z,0.55
2023-01-06T14:01:13.457Z,0.60
2023-01-06T14:03:42.021Z,0.65
2023-01-06T14:06:21.889Z,0.32
2023-01-06T14:08:52.451Z,0.40
2023-01-06T14:11:41.864Z,0.43
2023-01-06T14:14:29.037Z,0.52
2023-01-06T14:16:57.061Z,0.50
2023-01-06T14:19:28.606Z,0.43
2023-01-06T14:22:26.123Z,0.60
2023-01-06T14:25:05.127Z,0.50
2023-01-06T14:27:47.135Z,0.50
2023-01-06T14:30:33.715Z,0.77
2023-01-06T14:36:16.793Z,0.63
2023-01-06T14:41:49.131Z,0.63
2023-01-06T14:44:19.807Z,0.50
2023-01-06T14:46:53.794Z,0.60
2023-01-06T14:49:46.521Z,0.77
2023-01-06T14:52:18.126Z,0.55
2023-01-06T14:54:47.352Z,0.70
2023-01-06T14:57:25.948Z,0.50
2023-01-06T15:00:08.998Z,0.70
2023-01-06T15:02:36.045Z,0.45
2023-01-06T15:05:03.537Z,0.40
2023-01-06T15:07:30.560Z,0.50
2023-01-06T15:10:17.706Z,0.40
2023-01-06T15:12:55.978Z,0.60
2023-01-06T15:15:28.691Z,0.40
2023-01-06T15:17:56.980Z,0.50
2023-01-06T15:20:32.993Z,0.50
2023-01-06T15:23:00.589Z,0.55
2023-01-06T15:25:29.523Z,0.45
2023-01-06T15:27:57.385Z,0.50
2023-01-06T15:30:34.601Z,0.73
2023-01-06T15:33:02.680Z,0.50
2023-01-06T15:35:34.341Z,0.70
2023-01-06T15:38:11.127Z,0.50
2023-01-06T15:40:39.677Z,0.43
2023-01-06T15:43:09.498Z,0.47
2023-01-06T15:45:37.129Z,0.40
2023-01-06T15:48:11.909Z,0.40
2023-01-06T15:50:38.700Z,0.40
2023-01-06T15:53:15.625Z,0.45
2023-01-06T15:55:44.199Z,0.55
2023-01-06T15:58:27.032Z,0.50
2023-01-06T16:00:59.709Z,0.52
2023-01-06T16:03:30.243Z,0.60
2023-01-06T16:06:14.961Z,0.60
2023-01-06T16:08:42.908Z,0.60
2023-01-06T16:11:15.803Z,0.75
2023-01-06T16:13:48.649Z,0.50
2023-01-06T16:16:15.481Z,0.50
2023-01-06T16:18:43.657Z,0.63
2023-01-06T16:21:20.846Z,0.50
2023-01-06T16:23:54.151Z,0.65
2023-01-06T16:26:23.573Z,0.50
2023-01-06T16:28:56.473Z,0.50
2023-01-06T16:31:39.070Z,0.60
2023-01-06T16:34:20.839Z,0.60
2023-01-06T16:36:52.201Z,0.60
2023-01-06T16:39:19.100Z,0.50
2023-01-06T16:42:01.110Z,0.40
2023-01-06T16:44:32.297Z,0.55
2023-01-06T16:47:00.061Z,0.40
2023-01-06T16:49:29.256Z,0.60
2023-01-06T16:51:56.151Z,0.80
2023-01-06T16:54:23.429Z,0.68
2023-01-06T16:56:52.116Z,0.50
2023-01-06T16:59:22.238Z,0.40
2023-01-06T17:01:49.389Z,0.50
2023-01-06T17:04:16.284Z,0.80
2023-01-06T17:06:45.982Z,0.45
2023-01-06T17:09:21.618Z,0.60
2023-01-06T17:11:49.707Z,0.50
2023-01-06T17:14:19.075Z,0.63
2023-01-06T17:16:47.434Z,0.50
2023-01-06T17:19:30.119Z,0.60
2023-01-06T17:22:18.670Z,0.60
2023-01-06T17:24:45.595Z,0.50
2023-01-06T17:27:21.582Z,0.40
2023-01-06T17:29:49.772Z,0.50
2023-01-06T17:32:37.336Z,0.60
2023-01-06T17:35:26.280Z,0.60
2023-01-06T17:37:54.079Z,0.40
2023-01-06T17:40:31.692Z,0.47
2023-01-06T17:43:02.909Z,0.50
2023-01-06T17:45:30.221Z,0.70
2023-01-06T17:47:57.519Z,0.45
2023-01-06T17:50:31.114Z,0.60
2023-01-06T17:53:35.843Z,0.50
2023-01-06T17:56:13.104Z,0.32
2023-01-06T17:58:43.025Z,0.45
2023-01-06T18:01:24.475Z,0.60
2023-01-06T18:03:53.449Z,0.40
2023-01-06T18:06:30.218Z,0.50
2023-01-06T18:09:05.291Z,0.50
2023-01-06T18:11:37.166Z,0.40
2023-01-06T18:14:33.725Z,0.30
2023-01-06T18:17:27.538Z,0.65
2023-01-06T18:19:54.552Z,0.43
2023-01-06T18:22:26.072Z,0.45
2023-01-06T18:24:58.083Z,0.40
2023-01-06T18:27:33.383Z,0.38
2023-01-06T18:30:18.074Z,0.70
2023-01-06T18:32:46.024Z,0.57
2023-01-06T18:35:18.536Z,0.50
2023-01-06T18:37:45.461Z,0.60
2023-01-06T18:40:23.969Z,0.50
2023-01-06T18:42:52.357Z,0.55
2023-01-06T18:45:22.420Z,0.50
2023-01-06T18:47:50.752Z,0.57
2023-01-06T18:50:25.693Z,0.60
2023-01-06T18:52:54.358Z,0.93
2023-01-06T18:55:35.167Z,0.60
2023-01-06T18:58:14.037Z,0.77
2023-01-06T19:00:52.081Z,1.00
2023-01-06T19:03:37.082Z,0.98
2023-01-06T19:06:19.046Z,1.40
2023-01-06T19:08:49.689Z,1.65
2023-01-06T19:11:19.481Z,1.88
2023-01-06T19:13:46.701Z,1.50
2023-01-06T19:16:26.661Z,1.40
2023-01-06T19:18:56.219Z,1.63
2023-01-06T19:21:23.219Z,1.40
2023-01-06T19:23:50.050Z,1.40
2023-01-06T19:26:29.374Z,1.10
2023-01-06T19:29:02.641Z,1.17
2023-01-06T19:31:30.685Z,1.00
2023-01-06T19:34:00.626Z,1.00
2023-01-06T19:36:43.246Z,0.98
2023-01-06T19:39:26.728Z,0.70
2023-01-06T19:41:58.113Z,1.10
2023-01-06T19:44:33.023Z,0.82
2023-01-06T19:47:16.401Z,0.75
2023-01-06T19:49:49.514Z,0.77
2023-01-06T19:52:36.318Z,0.70
2023-01-06T19:55:25.852Z,0.85
2023-01-06T19:57:57.415Z,0.60
2023-01-06T20:00:47.786Z,0.70
2023-01-06T20:03:41.173Z,0.60
2023-01-06T20:06:07.929Z,0.68
2023-01-06T20:08:34.683Z,0.70
2023-01-06T20:11:01.414Z,0.80
2023-01-06T20:13:28.233Z,0.70
2023-01-06T20:15:55.065Z,0.80
2023-01-06T20:18:21.791Z,0.85
2023-01-06T20:20:48.531Z,0.80
2023-01-06T20:23:15.823Z,0.60
2023-01-06T20:25:43.175Z,0.68
2023-01-06T20:28:10.073Z,0.73
2023-01-06T20:30:36.836Z,0.70
2023-01-06T20:33:03.784Z,0.70
2023-01-06T20:35:30.537Z,0.73
2023-01-06T20:37:57.360Z,1.05
2023-01-06T20:40:24.206Z,0.70
2023-01-06T20:42:50.949Z,0.60
2023-01-06T20:45:17.934Z,0.93
2023-01-06T20:47:44.740Z,0.63
2023-01-06T20:50:14.434Z,1.00
2023-01-06T20:52:45.509Z,0.77
2023-01-06T20:55:12.840Z,0.80
2023-01-06T20:57:39.589Z,0.98
2023-01-06T21:00:07.870Z,1.08
2023-01-06T21:02:34.787Z,1.20
2023-01-06T21:05:01.620Z,0.90
2023-01-06T21:07:29.447Z,1.23
2023-01-06T21:09:56.841Z,1.10
2023-01-06T21:12:23.635Z,1.15
2023-01-06T21:14:50.405Z,1.50
2023-01-06T21:17:17.269Z,1.25
2023-01-06T21:19:44.070Z,1.20
2023-01-06T21:22:10.852Z,1.40
2023-01-06T21:24:37.617Z,1.60
2023-01-06T21:27:04.385Z,1.20
2023-01-06T21:29:31.148Z,1.35
2023-01-06T21:31:57.886Z,1.50
2023-01-06T21:34:24.719Z,1.60
2023-01-06T21:36:51.622Z,1.42
2023-01-06T21:39:18.641Z,1.48
2023-01-06T21:42:03.853Z,1.30
2023-01-06T21:44:30.605Z,1.70
2023-01-06T21:46:59.212Z,1.40
2023-01-06T21:49:28.043Z,1.30
2023-01-06T21:51:56.244Z,1.40
2023-01-06T21:54:23.127Z,1.70
2023-01-06T21:56:50.354Z,1.85
2023-01-06T21:59:17.674Z,1.80
2023-01-06T22:01:44.531Z,1.60
2023-01-06T22:04:11.480Z,1.50
2023-01-06T22:06:40.493Z,1.30
2023-01-06T22:09:09.122Z,1.40
2023-01-06T22:11:37.951Z,1.50
2023-01-06T22:14:05.986Z,1.48
2023-01-06T22:16:33.392Z,1.48
2023-01-06T22:19:00.283Z,1.73
2023-01-06T22:21:27.941Z,1.50
2023-01-06T22:23:56.909Z,1.75
2023-01-06T22:26:23.726Z,1.50
2023-01-06T22:28:50.482Z,1.38
2023-01-06T22:31:18.869Z,1.60
2023-01-06T22:33:45.722Z,1.80
2023-01-06T22:36:12.530Z,1.58
2023-01-06T22:38:39.347Z,1.73
2023-01-06T22:41:07.008Z,2.10
2023-01-06T22:43:34.148Z,1.90
2023-01-06T22:46:00.950Z,2.20
2023-01-06T22:48:28.220Z,1.83
2023-01-06T22:50:59.748Z,2.00
2023-01-06T22:53:27.665Z,2.00
2023-01-06T22:56:09.566Z,1.90
2023-01-06T22:58:38.304Z,2.10
2023-01-06T23:01:07.458Z,1.95
2023-01-06T23:03:34.692Z,2.28
2023-01-06T23:06:07.219Z,2.20
2023-01-06T23:08:36.530Z,2.00
2023-01-06T23:11:12.620Z,2.10
2023-01-06T23:13:40.722Z,2.00
2023-01-06T23:16:19.616Z,2.20
2023-01-06T23:18:48.213Z,2.25
2023-01-06T23:21:26.760Z,2.00
2023-01-06T23:23:54.190Z,1.90
2023-01-06T23:26:25.296Z,2.08
2023-01-06T23:28:54.002Z,2.10
2023-01-06T23:31:29.822Z,1.83
2023-01-06T23:34:00.138Z,1.63
2023-01-06T23:36:30.743Z,2.22
2023-01-06T23:38:58.834Z,2.15
2023-01-06T23:41:30.753Z,2.00
2023-01-06T23:43:57.940Z,2.08
2023-01-06T23:46:33.456Z,1.73
2023-01-06T23:49:00.299Z,1.80
2023-01-06T23:51:32.214Z,2.13
2023-01-06T23:54:02.820Z,1.92
2023-01-06T23:56:31.491Z,2.45
2023-01-06T23:59:00.056Z,2.00
